Time;durP1;ratioP1;P1;durP2;ratioP2;P2;SDS_P1;SDS_P2;PMS_P1;PMS_P2;Temp;Humidity;BMP_temperature;BMP_pressure;BME280_temperature;BME280_humidity;BME280_pressure;Samples;Min_cycle;Max_cycle;Signal;HPM_P1;HPM_P2
2021/12/31 00:00:41;;;;;;;5.45;2.45;;;;;;;13.10;100.00;101739.28;5313856;28;20029;-85
2021/12/31 00:03:18;;;;;;;7.38;2.33;;;;;;;13.13;100.00;101747.00;5310642;28;20043;-85
2021/12/31 00:05:50;;;;;;;5.05;2.30;;;;;;;13.10;100.00;101749.97;5302154;28;20107;-85
2021/12/31 00:08:21;;;;;;;6.95;2.47;;;;;;;13.13;100.00;101765.75;5302422;28;20022;-86
2021/12/31 00:10:59;;;;;;;5.20;2.40;;;;;;;13.16;100.00;101762.81;5309741;28;20030;-86
2021/12/31 00:13:30;;;;;;;7.95;2.80;;;;;;;13.14;100.00;101762.09;5306037;27;20056;-86
2021/12/31 00:16:02;;;;;;;6.15;2.38;;;;;;;13.16;100.00;101757.44;5305098;28;20067;-86
2021/12/31 00:18:33;;;;;;;9.10;2.65;;;;;;;13.15;100.00;101769.16;5317256;28;20024;-85
2021/12/31 00:21:04;;;;;;;4.25;2.40;;;;;;;13.12;100.00;101748.84;5318014;28;20028;-86
2021/12/31 00:23:36;;;;;;;5.50;2.70;;;;;;;13.13;100.00;101757.72;5316321;27;20020;-85
2021/12/31 00:26:07;;;;;;;9.48;2.75;;;;;;;13.15;100.00;101763.81;5316975;28;20028;-86
2021/12/31 00:28:38;;;;;;;6.90;2.80;;;;;;;13.14;100.00;101767.47;5309283;28;20024;-86
2021/12/31 00:31:10;;;;;;;6.93;2.70;;;;;;;13.12;100.00;101753.38;5318874;28;20052;-86
2021/12/31 00:33:41;;;;;;;6.43;2.53;;;;;;;13.13;100.00;101774.66;5313665;28;28691;-86
2021/12/31 00:36:12;;;;;;;5.25;2.38;;;;;;;13.11;100.00;101770.41;5306499;27;20082;-86
2021/12/31 00:38:44;;;;;;;7.15;2.40;;;;;;;13.04;100.00;101767.41;5308235;28;20095;-86
2021/12/31 00:41:15;;;;;;;8.05;2.40;;;;;;;13.08;100.00;101768.88;5313136;28;20051;-87
2021/12/31 00:43:46;;;;;;;4.85;2.50;;;;;;;13.06;100.00;101765.47;5310950;28;20024;-86
2021/12/31 00:46:17;;;;;;;4.78;2.45;;;;;;;13.02;100.00;101750.66;5315330;28;20063;-87
2021/12/31 00:48:49;;;;;;;6.72;2.80;;;;;;;13.10;100.00;101760.69;5312585;28;20032;-86
2021/12/31 00:51:20;;;;;;;6.15;2.20;;;;;;;13.13;100.00;101761.28;5317657;28;20109;-86
2021/12/31 00:53:51;;;;;;;6.10;2.25;;;;;;;13.13;100.00;101760.41;5304227;28;20024;-86
2021/12/31 00:56:23;;;;;;;7.78;2.15;;;;;;;13.15;100.00;101761.97;5304192;28;20016;-86
2021/12/31 00:58:54;;;;;;;3.95;2.33;;;;;;;13.14;100.00;101759.44;5304444;28;20035;-87
2021/12/31 01:01:26;;;;;;;5.90;2.40;;;;;;;13.14;100.00;101759.44;5310343;28;20023;-86
2021/12/31 01:03:57;;;;;;;8.55;2.60;;;;;;;13.13;100.00;101765.75;5308649;28;20048;-86
2021/12/31 01:06:28;;;;;;;7.72;2.38;;;;;;;13.09;100.00;101759.81;5312249;28;20127;-86
2021/12/31 01:09:00;;;;;;;5.28;2.17;;;;;;;13.14;100.00;101764.78;5305083;28;20077;-86
2021/12/31 01:11:31;;;;;;;7.97;2.45;;;;;;;13.10;100.00;101760.69;5314855;28;20032;-86
2021/12/31 01:14:08;;;;;;;7.88;2.42;;;;;;;13.14;100.00;101759.44;5310125;28;20052;-87
2021/12/31 01:16:45;;;;;;;4.35;2.30;;;;;;;13.14;100.00;101754.91;5310322;28;20028;-86
2021/12/31 01:21:48;;;;;;;6.18;1.98;;;;;;;13.10;100.00;101760.69;5313138;27;20037;-86
2021/12/31 01:24:23;;;;;;;4.57;1.95;;;;;;;13.14;100.00;101765.63;5319302;27;20028;-86
2021/12/31 01:26:54;;;;;;;4.80;2.28;;;;;;;13.13;100.00;101755.91;5311320;28;20119;-86
2021/12/31 01:29:25;;;;;;;7.80;2.25;;;;;;;13.10;100.00;101750.81;5313313;27;20103;-86
2021/12/31 01:31:57;;;;;;;6.25;2.53;;;;;;;13.08;100.00;101755.47;5309259;28;20402;-86
2021/12/31 01:34:29;;;;;;;6.65;2.28;;;;;;;13.07;100.00;101764.47;5316672;27;20040;-87
2021/12/31 01:37:00;;;;;;;6.13;2.35;;;;;;;13.10;100.00;101752.66;5309566;28;20039;-86
2021/12/31 01:39:31;;;;;;;8.45;3.47;;;;;;;13.07;100.00;101756.44;5306055;28;20090;-86
2021/12/31 01:42:07;;;;;;;4.40;1.95;;;;;;;13.12;100.00;101764.06;5308144;28;20028;-86
2021/12/31 01:44:43;;;;;;;5.13;2.25;;;;;;;13.13;100.00;101765.75;5305991;28;20017;-86
2021/12/31 01:47:16;;;;;;;5.35;2.53;;;;;;;13.15;100.00;101763.81;5308467;28;20035;-86
2021/12/31 01:49:55;;;;;;;8.60;2.30;;;;;;;13.13;100.00;101761.28;5307564;28;20089;-87
2021/12/31 01:52:26;;;;;;;7.15;2.20;;;;;;;13.11;100.00;101763.22;5316638;28;20448;-86
2021/12/31 01:54:58;;;;;;;5.25;2.25;;;;;;;13.18;100.00;101768.88;5310338;27;20070;-86
2021/12/31 01:57:29;;;;;;;5.22;1.80;;;;;;;13.22;100.00;101783.72;5305686;28;20028;-86
2021/12/31 02:00:01;;;;;;;6.88;2.10;;;;;;;13.26;100.00;101774.41;5309075;28;20075;-86
2021/12/31 02:02:32;;;;;;;6.50;2.78;;;;;;;13.25;100.00;101780.72;5295649;28;20041;-86
2021/12/31 02:05:04;;;;;;;5.90;2.17;;;;;;;13.18;100.00;101769.75;5308600;28;20060;-86
2021/12/31 02:07:36;;;;;;;9.10;2.28;;;;;;;13.20;100.00;101772.25;5301944;27;20095;-86
2021/12/31 02:10:09;;;;;;;7.72;2.10;;;;;;;13.21;100.00;101777.47;5308734;28;20032;-86
2021/12/31 02:12:46;;;;;;;3.95;1.70;;;;;;;13.20;100.00;101773.13;5308421;28;20469;-86
2021/12/31 02:15:19;;;;;;;4.20;1.90;;;;;;;13.17;100.00;101770.72;5311422;27;20063;-86
2021/12/31 02:17:51;;;;;;;5.18;2.05;;;;;;;13.22;100.00;101773.00;5306916;27;20023;-86
2021/12/31 02:20:34;;;;;;;5.38;2.22;;;;;;;13.24;100.00;101781.72;5309494;28;20358;-86
2021/12/31 02:23:07;;;;;;;5.13;2.30;;;;;;;13.26;100.00;101797.69;5307574;27;20028;-86
2021/12/31 02:25:39;;;;;;;6.60;2.00;;;;;;;13.27;100.00;101767.19;5305494;28;20020;-86
2021/12/31 02:28:11;;;;;;;4.82;2.20;;;;;;;13.19;100.00;101771.41;5304759;28;20028;-86
2021/12/31 02:30:43;;;;;;;5.53;2.30;;;;;;;13.21;100.00;101769.44;5304535;28;20025;-86
2021/12/31 02:33:14;;;;;;;4.65;2.20;;;;;;;13.24;100.00;101769.19;5307252;28;20028;-86
2021/12/31 02:35:45;;;;;;;6.88;2.00;;;;;;;13.19;100.00;101768.75;5309150;28;20111;-85
2021/12/31 02:38:16;;;;;;;7.80;2.67;;;;;;;13.17;100.00;101764.50;5311157;27;20028;-85
2021/12/31 02:40:48;;;;;;;6.93;2.72;;;;;;;13.16;100.00;101760.97;5310262;27;20130;-85
2021/12/31 02:43:19;;;;;;;4.80;2.60;;;;;;;13.13;100.00;101761.28;5310746;28;20032;-85
2021/12/31 02:45:51;;;;;;;6.32;2.65;;;;;;;13.12;100.00;101761.41;5313796;27;20151;-86
2021/12/31 02:48:25;;;;;;;6.38;2.40;;;;;;;13.13;100.00;101755.03;5307941;27;20043;-85
2021/12/31 02:50:59;;;;;;;4.15;1.95;;;;;;;13.08;100.00;101755.47;5313968;28;20025;-86
2021/12/31 02:53:40;;;;;;;6.32;2.35;;;;;;;13.09;100.00;101751.78;5337014;27;20020;-84
2021/12/31 02:56:14;;;;;;;5.25;1.92;;;;;;;13.08;100.00;101742.06;5342527;27;20028;-84
2021/12/31 02:58:46;;;;;;;6.35;2.45;;;;;;;13.08;100.00;101752.78;5315207;28;20106;-85
2021/12/31 03:01:18;;;;;;;4.70;2.70;;;;;;;13.04;100.00;101757.56;5307308;28;20049;-85
2021/12/31 03:03:50;;;;;;;9.60;2.38;;;;;;;13.04;100.00;101751.34;5296297;28;20092;-86
2021/12/31 03:06:23;;;;;;;4.68;2.67;;;;;;;13.08;100.00;101755.47;5296986;28;20982;-86
2021/12/31 03:08:56;;;;;;;7.07;2.42;;;;;;;13.07;100.00;101761.78;5289181;28;20032;-85
2021/12/31 03:11:28;;;;;;;6.05;2.25;;;;;;;13.01;100.00;101747.13;5287263;28;20401;-86
2021/12/31 03:14:01;;;;;;;7.03;2.20;;;;;;;12.99;100.00;101751.78;5309583;28;20040;-86
2021/12/31 03:16:33;;;;;;;6.45;2.25;;;;;;;12.97;100.00;101758.22;5305795;27;20061;-85
2021/12/31 03:19:04;;;;;;;6.97;2.10;;;;;;;12.97;100.00;101743.03;5312102;27;20024;-86
2021/12/31 03:21:35;;;;;;;8.95;2.28;;;;;;;12.94;100.00;101750.47;5313723;28;20366;-85
2021/12/31 03:24:07;;;;;;;5.75;2.13;;;;;;;12.92;100.00;101741.72;5321673;27;20488;-86
2021/12/31 03:26:38;;;;;;;7.82;2.40;;;;;;;12.86;100.00;101743.97;5314870;27;20078;-86
2021/12/31 03:29:09;;;;;;;5.50;2.42;;;;;;;12.86;100.00;101737.78;5315870;28;20039;-86
2021/12/31 03:31:41;;;;;;;5.90;2.30;;;;;;;12.80;100.00;101743.69;5323008;27;20066;-86
2021/12/31 03:34:14;;;;;;;5.78;1.90;;;;;;;12.82;100.00;101742.56;5316771;27;20044;-86
2021/12/31 03:36:46;;;;;;;6.70;2.50;;;;;;;12.79;100.00;101731.25;5317217;28;20029;-86
2021/12/31 03:39:17;;;;;;;6.13;2.60;;;;;;;12.86;100.00;101741.28;5300055;27;20086;-86
2021/12/31 03:41:48;;;;;;;6.82;2.72;;;;;;;12.82;100.00;101723.81;5321694;28;20016;-86
2021/12/31 03:44:20;;;;;;;8.82;3.00;;;;;;;12.81;100.00;101723.94;5314724;28;20052;-86
2021/12/31 03:46:51;;;;;;;8.82;2.58;;;;;;;12.78;100.00;101729.56;5307293;28;20131;-86
2021/12/31 03:49:22;;;;;;;7.93;2.50;;;;;;;12.77;100.00;101719.84;5310161;28;20063;-86
2021/12/31 03:51:53;;;;;;;7.68;2.42;;;;;;;12.74;100.00;101720.94;5320199;27;20107;-86
2021/12/31 03:54:25;;;;;;;8.20;2.88;;;;;;;12.70;100.00;101722.22;5314798;27;20028;-86
2021/12/31 03:56:56;;;;;;;6.50;2.35;;;;;;;12.65;100.00;101724.44;5312997;27;20055;-86
2021/12/31 03:59:27;;;;;;;7.60;3.20;;;;;;;12.66;100.00;101724.31;5312110;27;20163;-86
2021/12/31 04:01:59;;;;;;;9.07;2.65;;;;;;;12.64;100.00;101731.63;5317857;27;20511;-86
2021/12/31 04:04:30;;;;;;;8.48;2.58;;;;;;;12.67;100.00;101730.50;5309685;28;20087;-86
2021/12/31 04:07:01;;;;;;;7.22;2.75;;;;;;;12.68;100.00;101726.84;5313666;28;20036;-86
2021/12/31 04:09:33;;;;;;;7.93;2.65;;;;;;;12.73;100.00;101724.63;5310155;27;20086;-86
2021/12/31 04:12:04;;;;;;;8.20;2.85;;;;;;;12.74;100.00;101726.31;5313899;28;20139;-86
2021/12/31 04:14:36;;;;;;;9.27;2.92;;;;;;;12.78;100.00;101730.44;5307863;28;20033;-86
2021/12/31 04:17:07;;;;;;;8.82;3.38;;;;;;;12.76;100.00;101726.16;5316304;28;20106;-86
2021/12/31 04:19:40;;;;;;;7.05;2.80;;;;;;;12.80;100.00;101727.63;5312651;27;20105;-86
2021/12/31 04:22:13;;;;;;;9.25;3.00;;;;;;;12.77;100.00;101730.56;5312551;27;20588;-86
2021/12/31 04:27:16;;;;;;;8.00;3.50;;;;;;;12.78;100.00;101725.06;5312483;28;20107;-86
2021/12/31 04:29:51;;;;;;;6.20;2.95;;;;;;;12.85;100.00;101728.91;5315810;27;20080;-86
2021/12/31 04:32:24;;;;;;;6.65;2.63;;;;;;;12.82;100.00;101725.66;5324705;27;20024;-86
2021/12/31 04:34:55;;;;;;;9.95;3.13;;;;;;;12.85;100.00;101720.88;5316386;28;20044;-86
2021/12/31 04:37:26;;;;;;;7.28;2.67;;;;;;;12.85;100.00;101725.38;5320304;28;20035;-86
2021/12/31 04:39:58;;;;;;;8.68;3.10;;;;;;;12.85;100.00;101722.72;5311231;28;20638;-86
2021/12/31 04:42:29;;;;;;;6.63;2.92;;;;;;;12.86;100.00;101706.47;5309872;28;20028;-86
2021/12/31 04:45:01;;;;;;;6.55;2.92;;;;;;;12.83;100.00;101709.44;5316307;27;20442;-86
2021/12/31 04:47:33;;;;;;;8.13;3.00;;;;;;;12.85;100.00;101703.97;5314286;28;20028;-85
2021/12/31 04:50:05;;;;;;;8.02;3.55;;;;;;;12.78;100.00;101695.63;5310445;28;20801;-86
2021/12/31 04:52:36;;;;;;;8.18;2.80;;;;;;;12.76;100.00;101694.06;5309273;27;20025;-86
2021/12/31 04:55:09;;;;;;;8.57;2.90;;;;;;;12.73;100.00;101689.81;5311170;28;20033;-86
2021/12/31 04:57:42;;;;;;;7.05;2.90;;;;;;;12.74;100.00;101707.56;5310648;28;20474;-86
2021/12/31 05:00:14;;;;;;;7.13;2.63;;;;;;;12.78;100.00;101703.66;5310031;28;20032;-86
2021/12/31 05:02:45;;;;;;;5.13;2.58;;;;;;;12.77;100.00;101706.47;5307239;28;20020;-86
2021/12/31 05:05:17;;;;;;;6.97;2.92;;;;;;;12.75;100.00;101705.75;5305384;27;20785;-86
2021/12/31 05:07:48;;;;;;;6.10;2.70;;;;;;;12.76;100.00;101702.09;5315709;28;20048;-86
2021/12/31 05:10:21;;;;;;;8.20;2.53;;;;;;;12.71;100.00;101704.31;5310205;28;20037;-86
2021/12/31 05:12:55;;;;;;;9.68;3.10;;;;;;;12.73;100.00;101708.56;5318343;27;20017;-86
2021/12/31 05:15:29;;;;;;;6.00;2.53;;;;;;;12.70;100.00;101713.34;5308812;28;21020;-86
2021/12/31 05:18:01;;;;;;;7.22;2.80;;;;;;;12.74;100.00;101714.75;5313521;28;20031;-86
2021/12/31 05:20:33;;;;;;;11.38;3.38;;;;;;;12.71;100.00;101705.19;5305283;28;20029;-86
2021/12/31 05:23:04;;;;;;;7.43;3.08;;;;;;;12.63;100.00;101700.47;5307942;28;20024;-86
2021/12/31 05:25:36;;;;;;;7.20;2.78;;;;;;;12.64;100.00;101718.25;5301146;28;20033;-86
2021/12/31 05:28:07;;;;;;;8.43;2.70;;;;;;;12.60;100.00;101711.44;5300365;28;20067;-86
2021/12/31 05:30:38;;;;;;;6.45;2.60;;;;;;;12.61;100.00;101701.63;5297290;28;20492;-86
2021/12/31 05:33:10;;;;;;;7.28;3.35;;;;;;;12.60;100.00;101691.88;5303705;28;20024;-86
2021/12/31 05:35:41;;;;;;;6.15;2.83;;;;;;;12.57;100.00;101692.16;5306606;28;20436;-86
2021/12/31 05:38:12;;;;;;;7.25;2.72;;;;;;;12.53;100.00;101677.34;5309211;28;20095;-86
2021/12/31 05:40:44;;;;;;;5.00;2.60;;;;;;;12.42;100.00;101680.97;5301059;28;20088;-86
2021/12/31 05:43:15;;;;;;;5.25;2.80;;;;;;;12.36;100.00;101679.69;5300174;27;20024;-86
2021/12/31 05:45:46;;;;;;;6.22;2.35;;;;;;;12.29;100.00;101670.50;5298317;28;20051;-86
2021/12/31 05:48:17;;;;;;;6.38;3.05;;;;;;;12.14;100.00;101659.28;5292294;28;20021;-86
2021/12/31 05:50:49;;;;;;;7.38;2.92;;;;;;;12.12;100.00;101658.59;5297091;28;20094;-86
2021/12/31 05:53:20;;;;;;;9.70;3.00;;;;;;;12.06;100.00;101664.44;5296036;28;20090;-85
2021/12/31 05:55:51;;;;;;;8.80;2.65;;;;;;;11.94;100.00;101661.03;5306082;28;20040;-85
2021/12/31 05:58:23;;;;;;;6.50;2.45;;;;;;;11.96;100.00;101667.06;5310631;28;20024;-86
2021/12/31 06:00:54;;;;;;;4.45;2.35;;;;;;;11.91;100.00;101670.13;5309499;28;20056;-86
2021/12/31 06:03:25;;;;;;;6.05;2.13;;;;;;;11.88;100.00;101672.19;5304586;28;20051;-86
2021/12/31 06:05:56;;;;;;;5.55;2.60;;;;;;;11.85;100.00;101670.63;5303000;28;20033;-86
2021/12/31 06:08:28;;;;;;;6.43;2.58;;;;;;;11.82;100.00;101667.38;5303295;28;41061;-85
2021/12/31 06:10:59;;;;;;;4.43;2.20;;;;;;;11.68;100.00;101658.69;5307589;28;20063;-86
2021/12/31 06:13:31;;;;;;;5.35;2.25;;;;;;;11.66;100.00;101675.84;5301039;28;20021;-84
2021/12/31 06:16:04;;;;;;;5.35;2.20;;;;;;;11.67;100.00;101666.84;5301211;27;20040;-85
2021/12/31 06:18:36;;;;;;;4.68;2.40;;;;;;;11.60;100.00;101674.53;5305606;28;20386;-86
2021/12/31 06:21:07;;;;;;;5.47;2.00;;;;;;;11.60;100.00;101679.03;5300363;28;20029;-86
2021/12/31 06:23:39;;;;;;;6.50;2.30;;;;;;;11.48;100.00;101683.56;5298778;28;20021;-86
2021/12/31 06:26:10;;;;;;;5.22;2.72;;;;;;;11.51;100.00;101680.63;5307155;28;20512;-86
2021/12/31 06:28:41;;;;;;;7.60;2.42;;;;;;;11.52;100.00;101699.22;5295511;28;20103;-86
2021/12/31 06:31:12;;;;;;;5.80;2.40;;;;;;;11.53;100.00;101681.34;5301058;28;20029;-85
2021/12/31 06:33:44;;;;;;;5.25;2.50;;;;;;;11.53;100.00;101673.34;5302151;27;20020;-84
2021/12/31 06:36:16;;;;;;;5.25;2.47;;;;;;;11.45;100.00;101674.00;5295852;27;20053;-85
2021/12/31 06:38:50;;;;;;;9.70;2.45;;;;;;;11.49;100.00;101691.44;5300362;28;20055;-85
2021/12/31 06:41:21;;;;;;;7.47;2.72;;;;;;;11.52;100.00;101690.38;5299904;28;20075;-85
2021/12/31 06:43:52;;;;;;;7.60;2.65;;;;;;;11.41;100.00;101699.25;5299040;27;20032;-85
2021/12/31 06:46:23;;;;;;;7.25;2.78;;;;;;;11.34;100.00;101700.72;5309017;28;34758;-85
2021/12/31 06:48:55;;;;;;;6.10;2.25;;;;;;;11.27;100.00;101710.22;5311631;28;20024;-86
2021/12/31 06:51:26;;;;;;;6.38;2.50;;;;;;;11.30;100.00;101709.97;5305195;28;20715;-85
2021/12/31 06:53:57;;;;;;;6.25;2.67;;;;;;;11.19;100.00;101696.69;5313319;27;20121;-86
2021/12/31 06:56:30;;;;;;;6.53;2.63;;;;;;;11.20;100.00;101698.34;5317200;28;35552;-86
2021/12/31 06:59:01;;;;;;;4.97;2.22;;;;;;;11.13;100.00;101677.50;5307981;28;20055;-86
2021/12/31 07:01:32;;;;;;;5.13;2.70;;;;;;;11.14;100.00;101689.03;5310676;27;20059;-86
2021/12/31 07:04:04;;;;;;;5.50;2.75;;;;;;;11.08;100.00;101689.50;5321119;28;20170;-87
2021/12/31 07:06:35;;;;;;;8.90;3.03;;;;;;;10.98;100.00;101710.78;5318610;28;20501;-87
2021/12/31 07:09:06;;;;;;;6.85;2.28;;;;;;;11.08;100.00;101716.22;5316405;28;20485;-86
2021/12/31 07:11:37;;;;;;;4.38;2.70;;;;;;;11.02;100.00;101722.06;5322357;27;20032;-87
2021/12/31 07:14:09;;;;;;;8.50;2.50;;;;;;;10.94;100.00;101722.69;5306122;28;20462;-86
2021/12/31 07:16:40;;;;;;;5.43;2.75;;;;;;;10.98;100.00;101713.44;5305396;28;20403;-86
2021/12/31 07:19:11;;;;;;;7.50;2.80;;;;;;;10.93;100.00;101702.31;5329621;27;20028;-86
2021/12/31 07:21:43;;;;;;;10.10;3.58;;;;;;;10.91;100.00;101714.94;5306208;28;20033;-86
2021/12/31 07:24:14;;;;;;;5.72;2.67;;;;;;;10.92;100.00;101719.28;5306081;28;20031;-86
2021/12/31 07:26:45;;;;;;;5.38;2.83;;;;;;;10.90;100.00;101719.41;5304841;28;20027;-86
2021/12/31 07:29:17;;;;;;;9.90;3.20;;;;;;;10.84;100.00;101722.56;5298914;28;20347;-86
2021/12/31 07:31:48;;;;;;;4.10;2.30;;;;;;;10.80;100.00;101723.78;5292693;28;20027;-86
2021/12/31 07:34:20;;;;;;;4.40;2.75;;;;;;;10.77;100.00;101714.19;5304449;28;20363;-86
2021/12/31 07:36:51;;;;;;;8.23;2.67;;;;;;;10.82;100.00;101718.31;5304049;28;20033;-87
2021/12/31 07:39:24;;;;;;;9.77;3.63;;;;;;;10.77;100.00;101719.53;5292108;28;20210;-86
2021/12/31 07:41:55;;;;;;;6.57;2.70;;;;;;;10.81;100.00;101725.47;5304647;28;20035;-86
2021/12/31 07:44:27;;;;;;;5.30;2.78;;;;;;;10.75;100.00;101721.47;5301753;28;20028;-86
2021/12/31 07:46:58;;;;;;;5.78;2.53;;;;;;;10.71;100.00;101724.50;5295380;28;20044;-86
2021/12/31 07:49:29;;;;;;;9.20;3.33;;;;;;;10.68;100.00;101724.78;5306611;28;20031;-87
2021/12/31 07:52:01;;;;;;;5.70;2.50;;;;;;;10.63;100.00;101741.13;5294531;28;20103;-86
2021/12/31 07:54:32;;;;;;;6.70;3.38;;;;;;;10.68;100.00;101740.78;5285740;28;20044;-86
2021/12/31 07:57:03;;;;;;;4.68;2.72;;;;;;;10.68;100.00;101736.28;5305128;28;20021;-87
2021/12/31 07:59:35;;;;;;;7.35;3.22;;;;;;;10.70;100.00;101747.69;5343933;27;20033;-86
2021/12/31 08:02:07;;;;;;;6.07;3.05;;;;;;;10.71;100.00;101741.38;5302987;28;20025;-85
2021/12/31 08:04:38;;;;;;;6.05;3.15;;;;;;;10.79;100.00;101741.59;5296957;28;20066;-86
2021/12/31 08:07:10;;;;;;;8.02;3.15;;;;;;;10.71;100.00;101760.06;5295586;28;20025;-86
2021/12/31 08:09:41;;;;;;;5.65;2.60;;;;;;;10.68;100.00;101748.78;5301835;28;20131;-86
2021/12/31 08:12:12;;;;;;;5.60;3.10;;;;;;;10.75;100.00;101745.50;5300883;28;20055;-86
2021/12/31 08:14:43;;;;;;;10.35;3.58;;;;;;;10.79;100.00;101748.78;5297684;28;20052;-86
2021/12/31 08:17:15;;;;;;;8.52;3.58;;;;;;;10.85;100.00;101744.75;5294846;28;20485;-86
2021/12/31 08:19:46;;;;;;;4.00;2.38;;;;;;;10.95;100.00;101743.91;5295530;28;20131;-86
2021/12/31 08:22:18;;;;;;;7.00;2.20;;;;;;;11.04;100.00;101731.63;5296196;28;20021;-86
2021/12/31 08:24:49;;;;;;;5.18;2.88;;;;;;;11.09;100.00;101732.13;5299702;28;20016;-86
2021/12/31 08:27:21;;;;;;;5.93;2.72;;;;;;;11.20;100.00;101719.72;5299562;28;20029;-86
2021/12/31 08:29:52;;;;;;;5.00;2.50;;;;;;;11.23;100.00;101711.47;5297708;28;20226;-86
2021/12/31 08:32:23;;;;;;;5.95;2.90;;;;;;;11.27;100.00;101715.56;5304982;28;20036;-86
2021/12/31 08:34:54;;;;;;;6.32;2.70;;;;;;;11.30;100.00;101720.66;5300406;28;20037;-86
2021/12/31 08:37:26;;;;;;;7.22;2.35;;;;;;;11.34;100.00;101725.63;5295197;28;20033;-85
2021/12/31 08:39:57;;;;;;;3.08;2.00;;;;;;;11.38;100.00;101723.56;5298535;28;20028;-86
2021/12/31 08:42:28;;;;;;;5.43;2.40;;;;;;;11.41;100.00;101727.78;5307076;28;20024;-86
2021/12/31 08:45:00;;;;;;;3.22;2.38;;;;;;;11.44;100.00;101725.72;5306820;28;20036;-86
2021/12/31 08:47:31;;;;;;;4.40;2.25;;;;;;;11.49;100.00;101722.69;5314730;27;20140;-86
2021/12/31 08:50:03;;;;;;;4.80;2.20;;;;;;;11.47;100.00;101711.28;5324850;28;20091;-86
2021/12/31 08:52:34;;;;;;;2.58;2.30;;;;;;;11.53;100.00;101719.63;5326507;28;20046;-85
2021/12/31 08:55:08;;;;;;;3.92;2.58;;;;;;;11.62;100.00;101711.81;5318556;27;20036;-85
2021/12/31 08:57:40;;;;;;;5.63;2.53;;;;;;;11.70;100.00;101706.69;5318962;28;20044;-87
2021/12/31 09:00:12;;;;;;;3.85;2.42;;;;;;;11.78;100.00;101689.97;5306275;28;20052;-86
2021/12/31 09:02:45;;;;;;;4.38;2.45;;;;;;;11.83;100.00;101710.03;5299127;28;20020;-86
2021/12/31 09:05:17;;;;;;;4.68;2.45;;;;;;;11.88;100.00;101697.09;5297235;28;20122;-86
2021/12/31 09:07:50;;;;;;;4.03;2.28;;;;;;;11.90;100.00;101705.88;5295675;28;20024;-86
2021/12/31 09:10:21;;;;;;;4.15;2.38;;;;;;;11.92;100.00;101684.34;5297022;28;20385;-86
2021/12/31 09:12:52;;;;;;;6.60;2.30;;;;;;;11.97;100.00;101690.16;5294431;28;20072;-86
2021/12/31 09:15:24;;;;;;;3.40;2.20;;;;;;;11.98;100.00;101715.91;5296999;28;20037;-86
2021/12/31 09:17:55;;;;;;;3.50;2.30;;;;;;;12.00;100.00;101710.44;5299769;28;20150;-85
2021/12/31 09:20:28;;;;;;;3.38;2.22;;;;;;;12.04;100.00;101706.50;5302791;28;20028;-85
2021/12/31 09:23:00;;;;;;;4.38;2.28;;;;;;;12.05;100.00;101709.06;5300649;28;20028;-86
2021/12/31 09:25:32;;;;;;;5.10;2.65;;;;;;;12.12;100.00;101721.94;5297482;28;20039;-87
2021/12/31 09:28:03;;;;;;;4.15;2.28;;;;;;;12.18;100.00;101718.72;5292796;28;20102;-87
2021/12/31 09:30:34;;;;;;;6.43;2.35;;;;;;;12.21;100.00;101727.31;5295275;28;20061;-86
2021/12/31 09:33:06;;;;;;;4.57;2.00;;;;;;;12.18;100.00;101732.09;5299966;28;20127;-86
2021/12/31 09:35:37;;;;;;;3.40;2.03;;;;;;;12.18;100.00;101735.59;5296778;28;20389;-86
2021/12/31 09:38:09;;;;;;;3.35;1.92;;;;;;;12.16;100.00;101742.91;5294962;28;20471;-86
2021/12/31 09:40:40;;;;;;;2.35;2.13;;;;;;;12.16;100.00;101747.41;5291240;28;20482;-86
2021/12/31 09:43:12;;;;;;;4.38;2.03;;;;;;;12.16;100.00;101732.22;5290135;28;20032;-86
2021/12/31 09:45:45;;;;;;;5.65;2.03;;;;;;;12.14;100.00;101771.63;5295392;28;20477;-86
2021/12/31 09:48:20;;;;;;;4.63;2.33;;;;;;;12.14;100.00;101752.06;5294751;28;20037;-86
2021/12/31 09:50:55;;;;;;;3.42;1.88;;;;;;;12.12;100.00;101765.56;5297163;28;20032;-87
2021/12/31 09:53:26;;;;;;;3.42;1.80;;;;;;;12.09;100.00;101765.81;5296655;28;20087;-87
2021/12/31 09:55:58;;;;;;;3.80;2.08;;;;;;;12.10;100.00;101746.13;5295996;28;20033;-87
2021/12/31 09:58:30;;;;;;;3.97;2.00;;;;;;;12.12;100.00;101770.06;5301576;28;20377;-87
2021/12/31 10:01:02;;;;;;;3.22;1.95;;;;;;;12.17;100.00;101744.63;5297985;28;20035;-87
2021/12/31 10:03:34;;;;;;;3.03;2.33;;;;;;;12.19;100.00;101745.31;5307381;28;20123;-87
2021/12/31 10:06:14;;;;;;;3.55;2.08;;;;;;;12.16;100.00;101750.94;5296471;28;20064;-87
2021/12/31 10:08:47;;;;;;;3.85;2.35;;;;;;;12.14;100.00;101744.03;5296749;28;20375;-86
2021/12/31 10:11:22;;;;;;;3.78;2.03;;;;;;;12.13;100.00;101755.69;5300270;28;20028;-84
2021/12/31 10:13:58;;;;;;;3.93;2.87;;;;;;;12.12;100.00;101751.34;5300440;28;20020;-87
2021/12/31 10:16:39;;;;;;;4.32;2.40;;;;;;;12.07;100.00;101733.84;5297480;28;20104;-86
2021/12/31 10:19:13;;;;;;;5.57;2.53;;;;;;;12.07;100.00;101708.94;5299026;28;20112;-86
2021/12/31 10:21:48;;;;;;;6.40;2.17;;;;;;;12.02;100.00;101713.81;5298217;28;20378;-86
2021/12/31 10:24:38;;;;;;;2.85;2.33;;;;;;;12.00;100.00;101748.72;5329146;27;20394;-86
2021/12/31 10:27:09;;;;;;;3.72;2.25;;;;;;;11.99;100.00;101739.00;5303749;28;20103;-86
2021/12/31 10:29:55;;;;;;;4.53;1.87;;;;;;;11.98;100.00;101723.09;5305292;28;20458;-86
2021/12/31 10:32:29;;;;;;;2.80;1.95;;;;;;;12.05;100.00;101725.09;5298575;28;20278;-86
2021/12/31 10:35:11;;;;;;;4.03;2.28;;;;;;;12.12;100.00;101736.13;5296148;28;20335;-89
2021/12/31 10:37:47;;;;;;;2.95;2.00;;;;;;;12.19;100.00;101737.31;5293830;28;20037;-89
2021/12/31 10:40:36;;;;;;;3.85;2.30;;;;;;;12.20;100.00;101727.44;5298349;28;20024;-88
2021/12/31 10:43:29;;;;;;;4.82;2.92;;;;;;;12.24;100.00;101735.09;5306999;28;20119;-87
2021/12/31 10:46:07;;;;;;;4.32;2.25;;;;;;;12.32;100.00;101739.75;5305668;28;20020;-88
2021/12/31 10:48:50;;;;;;;6.20;2.30;;;;;;;12.39;100.00;101750.78;5311318;28;20134;-87
2021/12/31 10:51:38;;;;;;;5.90;2.30;;;;;;;12.52;100.00;101753.25;5312152;27;20040;-87
2021/12/31 10:54:30;;;;;;;4.45;2.58;;;;;;;12.61;100.00;101758.66;5306461;27;20041;-87
2021/12/31 10:57:01;;;;;;;4.88;2.72;;;;;;;12.63;100.00;101761.22;5295425;28;20036;-88
2021/12/31 10:59:37;;;;;;;4.88;2.35;;;;;;;12.72;100.00;101751.53;5305648;28;20091;-88
2021/12/31 11:02:10;;;;;;;3.83;2.47;;;;;;;12.77;100.00;101744.78;5320923;28;20034;-88
2021/12/31 11:04:42;;;;;;;4.22;2.28;;;;;;;12.85;100.00;101742.28;5305491;28;20490;-89
2021/12/31 11:07:14;;;;;;;6.32;2.65;;;;;;;12.77;100.00;101736.75;5294727;28;20025;-87
2021/12/31 11:09:45;;;;;;;8.27;2.90;;;;;;;12.61;100.00;101731.91;5304742;28;20020;-87
2021/12/31 11:12:17;;;;;;;3.08;2.50;;;;;;;12.56;100.00;101728.78;5304652;28;20025;-86
2021/12/31 11:14:49;;;;;;;4.38;2.63;;;;;;;12.56;100.00;101718.06;5302387;28;20496;-87
2021/12/31 11:17:21;;;;;;;6.68;2.70;;;;;;;12.58;100.00;101721.44;5301493;28;20040;-87
2021/12/31 11:19:53;;;;;;;3.03;2.60;;;;;;;12.74;100.00;101715.59;5284061;28;20043;-87
2021/12/31 11:22:28;;;;;;;3.90;2.25;;;;;;;12.81;100.00;101711.38;5283739;28;20017;-87
2021/12/31 11:25:19;;;;;;;6.70;2.70;;;;;;;12.82;100.00;101691.69;5283659;28;20025;-88
2021/12/31 11:27:52;;;;;;;3.08;2.33;;;;;;;12.70;100.00;101711.50;5285042;28;20372;-87
2021/12/31 11:30:27;;;;;;;4.90;2.58;;;;;;;12.66;100.00;101694.03;5285455;28;20555;-87
2021/12/31 11:33:08;;;;;;;3.78;2.25;;;;;;;12.60;100.00;101660.59;5285017;28;20108;-87
2021/12/31 11:35:46;;;;;;;5.05;2.38;;;;;;;12.78;100.00;101676.00;5284778;28;20053;-87
2021/12/31 11:38:23;;;;;;;3.17;2.00;;;;;;;14.17;100.00;101681.13;5283820;28;20025;-87
2021/12/31 11:41:04;;;;;;;4.22;2.17;;;;;;;15.18;100.00;101661.59;5284738;28;20416;-87
2021/12/31 11:43:38;;;;;;;4.55;2.65;;;;;;;14.80;100.00;101644.75;5285164;28;20029;-87
2021/12/31 11:46:15;;;;;;;5.93;2.67;;;;;;;14.40;100.00;101647.75;5287491;28;20029;-87